sensor_id;sensor_type;location;lat;lon;timestamp;pressure;altitude;pressure_sealevel;temperature
11321;BMP180;5715;48.234;14.320;2024-02-21T00:01:56;99524.00;;;15.00
11321;BMP180;5715;48.234;14.320;2024-02-21T00:04:44;99519.00;;;15.00
11321;BMP180;5715;48.234;14.320;2024-02-21T00:07:32;99519.00;;;15.10
11321;BMP180;5715;48.234;14.320;2024-02-21T00:10:19;99516.00;;;15.10
11321;BMP180;5715;48.234;14.320;2024-02-21T00:13:07;99510.00;;;15.10
11321;BMP180;5715;48.234;14.320;2024-02-21T00:15:54;99512.00;;;15.00
11321;BMP180;5715;48.234;14.320;2024-02-21T00:18:45;99512.00;;;15.20
11321;BMP180;5715;48.234;14.320;2024-02-21T00:21:33;99513.00;;;15.30
11321;BMP180;5715;48.234;14.320;2024-02-21T00:24:20;99503.00;;;15.00
11321;BMP180;5715;48.234;14.320;2024-02-21T00:27:08;99511.00;;;14.90
11321;BMP180;5715;48.234;14.320;2024-02-21T00:29:55;99506.00;;;15.00
11321;BMP180;5715;48.234;14.320;2024-02-21T00:32:43;99503.00;;;15.10
11321;BMP180;5715;48.234;14.320;2024-02-21T00:35:31;99505.00;;;15.10
11321;BMP180;5715;48.234;14.320;2024-02-21T00:38:18;99501.00;;;15.00
11321;BMP180;5715;48.234;14.320;2024-02-21T00:41:06;99494.00;;;15.00
11321;BMP180;5715;48.234;14.320;2024-02-21T00:43:53;99490.00;;;14.90
11321;BMP180;5715;48.234;14.320;2024-02-21T00:46:41;99485.00;;;14.80
11321;BMP180;5715;48.234;14.320;2024-02-21T00:49:28;99480.00;;;14.80
11321;BMP180;5715;48.234;14.320;2024-02-21T00:52:16;99484.00;;;14.70
11321;BMP180;5715;48.234;14.320;2024-02-21T00:55:05;99483.00;;;14.70
11321;BMP180;5715;48.234;14.320;2024-02-21T00:57:53;99478.00;;;14.70
11321;BMP180;5715;48.234;14.320;2024-02-21T01:00:40;99482.00;;;14.70
11321;BMP180;5715;48.234;14.320;2024-02-21T01:03:28;99471.00;;;14.70
11321;BMP180;5715;48.234;14.320;2024-02-21T01:06:16;99472.00;;;14.80
11321;BMP180;5715;48.234;14.320;2024-02-21T01:09:03;99473.00;;;14.70
11321;BMP180;5715;48.234;14.320;2024-02-21T01:11:51;99480.00;;;14.80
11321;BMP180;5715;48.234;14.320;2024-02-21T01:14:38;99479.00;;;14.70
11321;BMP180;5715;48.234;14.320;2024-02-21T01:17:26;99482.00;;;14.80
11321;BMP180;5715;48.234;14.320;2024-02-21T01:20:14;99478.00;;;14.70
11321;BMP180;5715;48.234;14.320;2024-02-21T01:23:02;99467.00;;;14.80
11321;BMP180;5715;48.234;14.320;2024-02-21T01:25:49;99476.00;;;14.80
11321;BMP180;5715;48.234;14.320;2024-02-21T01:28:37;99477.00;;;14.80
11321;BMP180;5715;48.234;14.320;2024-02-21T01:31:25;99465.00;;;14.70
11321;BMP180;5715;48.234;14.320;2024-02-21T01:34:13;99460.00;;;14.70
11321;BMP180;5715;48.234;14.320;2024-02-21T01:37:01;99465.00;;;14.80
11321;BMP180;5715;48.234;14.320;2024-02-21T01:39:51;99456.00;;;14.70
11321;BMP180;5715;48.234;14.320;2024-02-21T01:42:39;99461.00;;;14.70
11321;BMP180;5715;48.234;14.320;2024-02-21T01:45:30;99453.00;;;14.70
11321;BMP180;5715;48.234;14.320;2024-02-21T01:48:18;99448.00;;;14.70
11321;BMP180;5715;48.234;14.320;2024-02-21T01:51:06;99450.00;;;14.70
11321;BMP180;5715;48.234;14.320;2024-02-21T01:53:56;99449.00;;;14.90
11321;BMP180;5715;48.234;14.320;2024-02-21T01:56:47;99437.00;;;14.70
11321;BMP180;5715;48.234;14.320;2024-02-21T01:59:35;99439.00;;;14.60
11321;BMP180;5715;48.234;14.320;2024-02-21T02:02:24;99435.00;;;14.50
11321;BMP180;5715;48.234;14.320;2024-02-21T02:05:12;99435.00;;;14.50
11321;BMP180;5715;48.234;14.320;2024-02-21T02:07:59;99432.00;;;14.40
11321;BMP180;5715;48.234;14.320;2024-02-21T02:10:48;99427.00;;;14.30
11321;BMP180;5715;48.234;14.320;2024-02-21T02:13:35;99430.00;;;14.40
11321;BMP180;5715;48.234;14.320;2024-02-21T02:16:23;99419.00;;;14.30
11321;BMP180;5715;48.234;14.320;2024-02-21T02:19:11;99425.00;;;14.20
11321;BMP180;5715;48.234;14.320;2024-02-21T02:22:14;99422.00;;;14.10
11321;BMP180;5715;48.234;14.320;2024-02-21T02:25:04;99424.00;;;14.00
11321;BMP180;5715;48.234;14.320;2024-02-21T02:27:53;99399.00;;;13.90
11321;BMP180;5715;48.234;14.320;2024-02-21T02:30:41;99410.00;;;14.00
11321;BMP180;5715;48.234;14.320;2024-02-21T02:33:28;99400.00;;;13.90
11321;BMP180;5715;48.234;14.320;2024-02-21T02:36:16;99395.00;;;13.90
11321;BMP180;5715;48.234;14.320;2024-02-21T02:39:05;99402.00;;;13.90
11321;BMP180;5715;48.234;14.320;2024-02-21T02:41:53;99391.00;;;13.90
11321;BMP180;5715;48.234;14.320;2024-02-21T02:44:40;99385.00;;;14.00
11321;BMP180;5715;48.234;14.320;2024-02-21T02:47:28;99395.00;;;14.00
11321;BMP180;5715;48.234;14.320;2024-02-21T02:50:16;99395.00;;;14.00
11321;BMP180;5715;48.234;14.320;2024-02-21T02:53:03;99382.00;;;14.20
11321;BMP180;5715;48.234;14.320;2024-02-21T02:55:51;99390.00;;;14.20
11321;BMP180;5715;48.234;14.320;2024-02-21T02:58:39;99381.00;;;14.20
11321;BMP180;5715;48.234;14.320;2024-02-21T03:01:26;99381.00;;;14.20
11321;BMP180;5715;48.234;14.320;2024-02-21T03:04:14;99376.00;;;14.30
11321;BMP180;5715;48.234;14.320;2024-02-21T03:07:02;99372.00;;;14.40
11321;BMP180;5715;48.234;14.320;2024-02-21T03:09:50;99370.00;;;14.50
11321;BMP180;5715;48.234;14.320;2024-02-21T03:12:38;99372.00;;;14.40
11321;BMP180;5715;48.234;14.320;2024-02-21T03:15:25;99368.00;;;14.40
11321;BMP180;5715;48.234;14.320;2024-02-21T03:18:13;99367.00;;;14.40
11321;BMP180;5715;48.234;14.320;2024-02-21T03:21:00;99363.00;;;14.40
11321;BMP180;5715;48.234;14.320;2024-02-21T03:23:48;99364.00;;;14.50
11321;BMP180;5715;48.234;14.320;2024-02-21T03:26:35;99363.00;;;14.50
11321;BMP180;5715;48.234;14.320;2024-02-21T03:29:23;99353.00;;;14.50
11321;BMP180;5715;48.234;14.320;2024-02-21T03:32:11;99357.00;;;14.50
11321;BMP180;5715;48.234;14.320;2024-02-21T03:34:58;99361.00;;;14.60
11321;BMP180;5715;48.234;14.320;2024-02-21T03:37:46;99356.00;;;14.70
11321;BMP180;5715;48.234;14.320;2024-02-21T03:40:34;99355.00;;;14.60
11321;BMP180;5715;48.234;14.320;2024-02-21T03:43:22;99350.00;;;14.70
11321;BMP180;5715;48.234;14.320;2024-02-21T03:46:09;99350.00;;;14.70
11321;BMP180;5715;48.234;14.320;2024-02-21T03:48:57;99349.00;;;14.80
11321;BMP180;5715;48.234;14.320;2024-02-21T03:51:44;99344.00;;;14.80
11321;BMP180;5715;48.234;14.320;2024-02-21T03:54:32;99346.00;;;14.80
11321;BMP180;5715;48.234;14.320;2024-02-21T03:57:20;99347.00;;;14.70
11321;BMP180;5715;48.234;14.320;2024-02-21T04:00:08;99347.00;;;14.70
11321;BMP180;5715;48.234;14.320;2024-02-21T04:02:58;99347.00;;;14.80
11321;BMP180;5715;48.234;14.320;2024-02-21T04:05:46;99348.00;;;14.80
11321;BMP180;5715;48.234;14.320;2024-02-21T04:08:34;99347.00;;;14.80
11321;BMP180;5715;48.234;14.320;2024-02-21T04:11:21;99350.00;;;14.80
11321;BMP180;5715;48.234;14.320;2024-02-21T04:14:09;99346.00;;;14.80
11321;BMP180;5715;48.234;14.320;2024-02-21T04:16:59;99340.00;;;14.80
11321;BMP180;5715;48.234;14.320;2024-02-21T04:19:46;99343.00;;;14.80
11321;BMP180;5715;48.234;14.320;2024-02-21T04:22:35;99340.00;;;14.80
11321;BMP180;5715;48.234;14.320;2024-02-21T04:25:23;99343.00;;;14.80
11321;BMP180;5715;48.234;14.320;2024-02-21T04:28:11;99342.00;;;14.80
11321;BMP180;5715;48.234;14.320;2024-02-21T04:30:58;99336.00;;;14.80
11321;BMP180;5715;48.234;14.320;2024-02-21T04:33:46;99330.00;;;14.80
11321;BMP180;5715;48.234;14.320;2024-02-21T04:36:33;99328.00;;;14.90
11321;BMP180;5715;48.234;14.320;2024-02-21T04:39:21;99327.00;;;14.90
11321;BMP180;5715;48.234;14.320;2024-02-21T04:42:09;99328.00;;;14.80
11321;BMP180;5715;48.234;14.320;2024-02-21T04:44:56;99320.00;;;14.90
11321;BMP180;5715;48.234;14.320;2024-02-21T04:47:44;99322.00;;;14.70
11321;BMP180;5715;48.234;14.320;2024-02-21T04:50:32;99324.00;;;14.70
11321;BMP180;5715;48.234;14.320;2024-02-21T04:53:19;99322.00;;;14.70
11321;BMP180;5715;48.234;14.320;2024-02-21T04:56:07;99323.00;;;14.80
11321;BMP180;5715;48.234;14.320;2024-02-21T04:58:55;99322.00;;;14.50
11321;BMP180;5715;48.234;14.320;2024-02-21T05:01:43;99319.00;;;14.60
11321;BMP180;5715;48.234;14.320;2024-02-21T05:04:31;99314.00;;;14.60
11321;BMP180;5715;48.234;14.320;2024-02-21T05:07:19;99314.00;;;14.60
11321;BMP180;5715;48.234;14.320;2024-02-21T05:10:08;99317.00;;;14.50
11321;BMP180;5715;48.234;14.320;2024-02-21T05:12:57;99313.00;;;14.50
11321;BMP180;5715;48.234;14.320;2024-02-21T05:15:45;99310.00;;;14.50
11321;BMP180;5715;48.234;14.320;2024-02-21T05:18:33;99319.00;;;14.40
11321;BMP180;5715;48.234;14.320;2024-02-21T05:21:21;99311.00;;;14.50
11321;BMP180;5715;48.234;14.320;2024-02-21T05:24:11;99307.00;;;14.50
11321;BMP180;5715;48.234;14.320;2024-02-21T05:26:58;99300.00;;;14.40
11321;BMP180;5715;48.234;14.320;2024-02-21T05:29:46;99295.00;;;14.50
11321;BMP180;5715;48.234;14.320;2024-02-21T05:32:35;99292.00;;;14.40
11321;BMP180;5715;48.234;14.320;2024-02-21T05:35:28;99291.00;;;14.50
11321;BMP180;5715;48.234;14.320;2024-02-21T05:38:17;99289.00;;;14.50
11321;BMP180;5715;48.234;14.320;2024-02-21T05:41:05;99287.00;;;14.50
11321;BMP180;5715;48.234;14.320;2024-02-21T05:43:57;99286.00;;;14.50
11321;BMP180;5715;48.234;14.320;2024-02-21T05:46:44;99289.00;;;14.50
11321;BMP180;5715;48.234;14.320;2024-02-21T05:49:32;99295.00;;;14.50
11321;BMP180;5715;48.234;14.320;2024-02-21T05:52:20;99284.00;;;14.50
11321;BMP180;5715;48.234;14.320;2024-02-21T05:55:08;99287.00;;;14.50
11321;BMP180;5715;48.234;14.320;2024-02-21T05:57:59;99283.00;;;14.50
11321;BMP180;5715;48.234;14.320;2024-02-21T06:00:46;99283.00;;;14.50
11321;BMP180;5715;48.234;14.320;2024-02-21T06:03:35;99280.00;;;14.50
11321;BMP180;5715;48.234;14.320;2024-02-21T06:06:23;99283.00;;;14.50
11321;BMP180;5715;48.234;14.320;2024-02-21T06:09:12;99268.00;;;14.50
11321;BMP180;5715;48.234;14.320;2024-02-21T06:12:00;99263.00;;;14.40
11321;BMP180;5715;48.234;14.320;2024-02-21T06:14:49;99263.00;;;14.40
11321;BMP180;5715;48.234;14.320;2024-02-21T06:17:36;99260.00;;;14.40
11321;BMP180;5715;48.234;14.320;2024-02-21T06:20:24;99260.00;;;14.40
11321;BMP180;5715;48.234;14.320;2024-02-21T06:23:16;99260.00;;;14.40
11321;BMP180;5715;48.234;14.320;2024-02-21T06:26:04;99264.00;;;14.30
11321;BMP180;5715;48.234;14.320;2024-02-21T06:28:51;99270.00;;;14.40
11321;BMP180;5715;48.234;14.320;2024-02-21T06:31:40;99265.00;;;14.40
11321;BMP180;5715;48.234;14.320;2024-02-21T06:34:28;99262.00;;;14.50
11321;BMP180;5715;48.234;14.320;2024-02-21T06:37:21;99274.00;;;14.50
11321;BMP180;5715;48.234;14.320;2024-02-21T06:40:09;99274.00;;;14.60
11321;BMP180;5715;48.234;14.320;2024-02-21T06:42:56;99279.00;;;14.60
11321;BMP180;5715;48.234;14.320;2024-02-21T06:45:44;99273.00;;;14.60
11321;BMP180;5715;48.234;14.320;2024-02-21T06:48:34;99275.00;;;14.70
11321;BMP180;5715;48.234;14.320;2024-02-21T06:51:22;99280.00;;;14.90
11321;BMP180;5715;48.234;14.320;2024-02-21T06:54:10;99280.00;;;14.90
11321;BMP180;5715;48.234;14.320;2024-02-21T06:56:58;99275.00;;;15.10
11321;BMP180;5715;48.234;14.320;2024-02-21T06:59:45;99276.00;;;15.20
11321;BMP180;5715;48.234;14.320;2024-02-21T07:02:33;99272.00;;;15.40
11321;BMP180;5715;48.234;14.320;2024-02-21T07:05:21;99275.00;;;15.50
11321;BMP180;5715;48.234;14.320;2024-02-21T07:08:09;99284.00;;;15.60
11321;BMP180;5715;48.234;14.320;2024-02-21T07:10:57;99283.00;;;15.80
11321;BMP180;5715;48.234;14.320;2024-02-21T07:13:45;99281.00;;;15.80
11321;BMP180;5715;48.234;14.320;2024-02-21T07:16:32;99278.00;;;15.80
11321;BMP180;5715;48.234;14.320;2024-02-21T07:19:20;99268.00;;;16.00
11321;BMP180;5715;48.234;14.320;2024-02-21T07:22:08;99270.00;;;16.10
11321;BMP180;5715;48.234;14.320;2024-02-21T07:24:56;99264.00;;;16.20
11321;BMP180;5715;48.234;14.320;2024-02-21T07:27:44;99267.00;;;16.20
11321;BMP180;5715;48.234;14.320;2024-02-21T07:30:32;99262.00;;;16.40
11321;BMP180;5715;48.234;14.320;2024-02-21T07:33:19;99267.00;;;16.40
11321;BMP180;5715;48.234;14.320;2024-02-21T07:36:10;99257.00;;;16.40
11321;BMP180;5715;48.234;14.320;2024-02-21T07:38:57;99255.00;;;16.50
11321;BMP180;5715;48.234;14.320;2024-02-21T07:41:45;99246.00;;;16.50
11321;BMP180;5715;48.234;14.320;2024-02-21T07:44:34;99242.00;;;16.40
11321;BMP180;5715;48.234;14.320;2024-02-21T07:47:22;99240.00;;;16.30
11321;BMP180;5715;48.234;14.320;2024-02-21T07:50:10;99246.00;;;16.30
11321;BMP180;5715;48.234;14.320;2024-02-21T07:52:57;99248.00;;;16.30
11321;BMP180;5715;48.234;14.320;2024-02-21T07:55:45;99248.00;;;16.40
11321;BMP180;5715;48.234;14.320;2024-02-21T07:58:33;99246.00;;;16.60
11321;BMP180;5715;48.234;14.320;2024-02-21T08:01:21;99239.00;;;16.60
11321;BMP180;5715;48.234;14.320;2024-02-21T08:04:09;99241.00;;;16.90
11321;BMP180;5715;48.234;14.320;2024-02-21T08:06:57;99230.00;;;16.90
11321;BMP180;5715;48.234;14.320;2024-02-21T08:09:48;99220.00;;;17.50
11321;BMP180;5715;48.234;14.320;2024-02-21T08:12:36;99218.00;;;17.90
11321;BMP180;5715;48.234;14.320;2024-02-21T08:15:24;99221.00;;;18.20
11321;BMP180;5715;48.234;14.320;2024-02-21T08:18:15;99215.00;;;18.50
11321;BMP180;5715;48.234;14.320;2024-02-21T08:21:04;99219.00;;;18.80
11321;BMP180;5715;48.234;14.320;2024-02-21T08:23:51;99213.00;;;19.00
11321;BMP180;5715;48.234;14.320;2024-02-21T08:26:41;99208.00;;;19.10
11321;BMP180;5715;48.234;14.320;2024-02-21T08:29:29;99205.00;;;19.20
11321;BMP180;5715;48.234;14.320;2024-02-21T08:32:16;99201.00;;;19.10
11321;BMP180;5715;48.234;14.320;2024-02-21T08:35:05;99201.00;;;19.20
11321;BMP180;5715;48.234;14.320;2024-02-21T08:37:52;99196.00;;;19.20
11321;BMP180;5715;48.234;14.320;2024-02-21T08:40:40;99198.00;;;19.20
11321;BMP180;5715;48.234;14.320;2024-02-21T08:43:28;99195.00;;;18.90
11321;BMP180;5715;48.234;14.320;2024-02-21T08:46:15;99195.00;;;19.00
11321;BMP180;5715;48.234;14.320;2024-02-21T08:49:03;99192.00;;;19.00
11321;BMP180;5715;48.234;14.320;2024-02-21T08:51:51;99186.00;;;18.90
11321;BMP180;5715;48.234;14.320;2024-02-21T08:54:38;99190.00;;;18.80
11321;BMP180;5715;48.234;14.320;2024-02-21T08:57:27;99189.00;;;18.80
11321;BMP180;5715;48.234;14.320;2024-02-21T09:00:15;99187.00;;;18.80
11321;BMP180;5715;48.234;14.320;2024-02-21T09:03:04;99186.00;;;18.70
11321;BMP180;5715;48.234;14.320;2024-02-21T09:05:51;99183.00;;;18.80
11321;BMP180;5715;48.234;14.320;2024-02-21T09:08:39;99193.00;;;18.90
11321;BMP180;5715;48.234;14.320;2024-02-21T09:11:26;99195.00;;;19.30
11321;BMP180;5715;48.234;14.320;2024-02-21T09:14:15;99187.00;;;19.10
11321;BMP180;5715;48.234;14.320;2024-02-21T09:17:03;99186.00;;;19.10
11321;BMP180;5715;48.234;14.320;2024-02-21T09:19:51;99190.00;;;19.10
11321;BMP180;5715;48.234;14.320;2024-02-21T09:22:40;99192.00;;;19.50
11321;BMP180;5715;48.234;14.320;2024-02-21T09:25:28;99176.00;;;19.60
11321;BMP180;5715;48.234;14.320;2024-02-21T09:28:16;99181.00;;;19.90
11321;BMP180;5715;48.234;14.320;2024-02-21T09:31:04;99172.00;;;19.90
11321;BMP180;5715;48.234;14.320;2024-02-21T09:33:51;99159.00;;;19.90
11321;BMP180;5715;48.234;14.320;2024-02-21T09:36:39;99165.00;;;20.00
11321;BMP180;5715;48.234;14.320;2024-02-21T09:39:27;99157.00;;;19.80
11321;BMP180;5715;48.234;14.320;2024-02-21T09:42:20;99159.00;;;19.80
11321;BMP180;5715;48.234;14.320;2024-02-21T09:45:29;99160.00;;;19.90
11321;BMP180;5715;48.234;14.320;2024-02-21T09:49:18;99164.00;;;20.00
11321;BMP180;5715;48.234;14.320;2024-02-21T09:51:47;99166.00;;;20.00
11321;BMP180;5715;48.234;14.320;2024-02-21T09:54:37;99162.00;;;20.30
11321;BMP180;5715;48.234;14.320;2024-02-21T09:57:25;99157.00;;;20.20
11321;BMP180;5715;48.234;14.320;2024-02-21T10:00:14;99162.00;;;20.40
11321;BMP180;5715;48.234;14.320;2024-02-21T10:03:09;99153.00;;;20.40
11321;BMP180;5715;48.234;14.320;2024-02-21T10:05:57;99153.00;;;20.40
11321;BMP180;5715;48.234;14.320;2024-02-21T10:08:54;99159.00;;;20.60
11321;BMP180;5715;48.234;14.320;2024-02-21T10:11:41;99150.00;;;20.40
11321;BMP180;5715;48.234;14.320;2024-02-21T10:14:29;99142.00;;;20.50
11321;BMP180;5715;48.234;14.320;2024-02-21T10:17:17;99146.00;;;20.80
11321;BMP180;5715;48.234;14.320;2024-02-21T10:20:12;99143.00;;;20.50
11321;BMP180;5715;48.234;14.320;2024-02-21T10:23:05;99139.00;;;20.60
11321;BMP180;5715;48.234;14.320;2024-02-21T10:26:07;99141.00;;;20.00
11321;BMP180;5715;48.234;14.320;2024-02-21T10:28:55;99147.00;;;20.00
11321;BMP180;5715;48.234;14.320;2024-02-21T10:31:43;99145.00;;;20.30
11321;BMP180;5715;48.234;14.320;2024-02-21T10:34:31;99142.00;;;20.30
11321;BMP180;5715;48.234;14.320;2024-02-21T10:37:21;99133.00;;;20.20
11321;BMP180;5715;48.234;14.320;2024-02-21T10:40:09;99123.00;;;20.40
11321;BMP180;5715;48.234;14.320;2024-02-21T10:43:01;99116.00;;;20.40
11321;BMP180;5715;48.234;14.320;2024-02-21T10:45:50;99104.00;;;20.20
11321;BMP180;5715;48.234;14.320;2024-02-21T10:48:44;99104.00;;;20.40
11321;BMP180;5715;48.234;14.320;2024-02-21T10:51:34;99095.00;;;20.60
11321;BMP180;5715;48.234;14.320;2024-02-21T10:54:44;99089.00;;;20.60
11321;BMP180;5715;48.234;14.320;2024-02-21T10:57:37;99087.00;;;20.70
11321;BMP180;5715;48.234;14.320;2024-02-21T11:00:27;99078.00;;;20.80
11321;BMP180;5715;48.234;14.320;2024-02-21T11:03:17;99062.00;;;20.90
11321;BMP180;5715;48.234;14.320;2024-02-21T11:06:06;99059.00;;;21.20
11321;BMP180;5715;48.234;14.320;2024-02-21T11:09:06;99048.00;;;21.20
11321;BMP180;5715;48.234;14.320;2024-02-21T11:11:55;99036.00;;;21.10
11321;BMP180;5715;48.234;14.320;2024-02-21T11:14:43;99042.00;;;21.20
11321;BMP180;5715;48.234;14.320;2024-02-21T11:17:31;99034.00;;;21.20
11321;BMP180;5715;48.234;14.320;2024-02-21T11:20:19;99026.00;;;21.30
11321;BMP180;5715;48.234;14.320;2024-02-21T11:23:06;99020.00;;;21.20
11321;BMP180;5715;48.234;14.320;2024-02-21T11:26:08;99022.00;;;20.40
11321;BMP180;5715;48.234;14.320;2024-02-21T11:29:01;99024.00;;;21.00
11321;BMP180;5715;48.234;14.320;2024-02-21T11:31:50;99022.00;;;20.80
11321;BMP180;5715;48.234;14.320;2024-02-21T11:34:38;99022.00;;;21.20
11321;BMP180;5715;48.234;14.320;2024-02-21T11:37:29;99019.00;;;21.00
11321;BMP180;5715;48.234;14.320;2024-02-21T11:40:17;99010.00;;;21.00
11321;BMP180;5715;48.234;14.320;2024-02-21T11:43:05;99003.00;;;21.10
11321;BMP180;5715;48.234;14.320;2024-02-21T11:46:02;98997.00;;;21.00
11321;BMP180;5715;48.234;14.320;2024-02-21T11:48:51;99012.00;;;21.20
11321;BMP180;5715;48.234;14.320;2024-02-21T11:51:39;99007.00;;;20.70
11321;BMP180;5715;48.234;14.320;2024-02-21T11:54:27;99007.00;;;21.10
11321;BMP180;5715;48.234;14.320;2024-02-21T11:57:15;98992.00;;;21.40
11321;BMP180;5715;48.234;14.320;2024-02-21T12:00:18;98996.00;;;21.30
11321;BMP180;5715;48.234;14.320;2024-02-21T12:03:09;98984.00;;;21.30
11321;BMP180;5715;48.234;14.320;2024-02-21T12:05:57;98980.00;;;21.10
11321;BMP180;5715;48.234;14.320;2024-02-21T12:08:46;98989.00;;;21.40
11321;BMP180;5715;48.234;14.320;2024-02-21T12:11:34;98975.00;;;21.40
11321;BMP180;5715;48.234;14.320;2024-02-21T12:14:25;98959.00;;;21.30
11321;BMP180;5715;48.234;14.320;2024-02-21T12:17:13;98955.00;;;21.20
11321;BMP180;5715;48.234;14.320;2024-02-21T12:20:02;98959.00;;;21.20
11321;BMP180;5715;48.234;14.320;2024-02-21T12:23:00;98943.00;;;21.30
11321;BMP180;5715;48.234;14.320;2024-02-21T12:25:48;98941.00;;;21.10
11321;BMP180;5715;48.234;14.320;2024-02-21T12:28:36;98931.00;;;21.30
11321;BMP180;5715;48.234;14.320;2024-02-21T12:31:24;98928.00;;;21.00
11321;BMP180;5715;48.234;14.320;2024-02-21T12:34:11;98917.00;;;21.20
11321;BMP180;5715;48.234;14.320;2024-02-21T12:37:01;98917.00;;;21.40
11321;BMP180;5715;48.234;14.320;2024-02-21T12:39:49;98909.00;;;21.70
11321;BMP180;5715;48.234;14.320;2024-02-21T12:42:36;98905.00;;;21.50
11321;BMP180;5715;48.234;14.320;2024-02-21T12:45:24;98901.00;;;21.50
11321;BMP180;5715;48.234;14.320;2024-02-21T12:48:12;98899.00;;;21.80
11321;BMP180;5715;48.234;14.320;2024-02-21T12:51:01;98886.00;;;22.20
11321;BMP180;5715;48.234;14.320;2024-02-21T12:53:49;98884.00;;;22.30
11321;BMP180;5715;48.234;14.320;2024-02-21T12:56:37;98874.00;;;22.60
11321;BMP180;5715;48.234;14.320;2024-02-21T12:59:25;98863.00;;;22.30
11321;BMP180;5715;48.234;14.320;2024-02-21T13:02:13;98867.00;;;22.10
11321;BMP180;5715;48.234;14.320;2024-02-21T13:05:01;98860.00;;;22.30
11321;BMP180;5715;48.234;14.320;2024-02-21T13:07:50;98850.00;;;22.50
11321;BMP180;5715;48.234;14.320;2024-02-21T13:10:37;98845.00;;;22.40
11321;BMP180;5715;48.234;14.320;2024-02-21T13:13:25;98833.00;;;22.70
11321;BMP180;5715;48.234;14.320;2024-02-21T13:16:13;98826.00;;;22.90
11321;BMP180;5715;48.234;14.320;2024-02-21T13:19:01;98830.00;;;23.20
11321;BMP180;5715;48.234;14.320;2024-02-21T13:21:48;98823.00;;;22.70
11321;BMP180;5715;48.234;14.320;2024-02-21T13:24:36;98817.00;;;22.60
11321;BMP180;5715;48.234;14.320;2024-02-21T13:27:24;98806.00;;;22.40
11321;BMP180;5715;48.234;14.320;2024-02-21T13:30:12;98799.00;;;22.60
11321;BMP180;5715;48.234;14.320;2024-02-21T13:33:03;98797.00;;;22.70
11321;BMP180;5715;48.234;14.320;2024-02-21T13:35:51;98784.00;;;22.80
11321;BMP180;5715;48.234;14.320;2024-02-21T13:38:39;98780.00;;;22.90
11321;BMP180;5715;48.234;14.320;2024-02-21T13:41:27;98776.00;;;22.70
11321;BMP180;5715;48.234;14.320;2024-02-21T13:44:15;98783.00;;;22.70
11321;BMP180;5715;48.234;14.320;2024-02-21T13:47:03;98774.00;;;22.60
11321;BMP180;5715;48.234;14.320;2024-02-21T13:49:52;98772.00;;;22.90
11321;BMP180;5715;48.234;14.320;2024-02-21T13:52:42;98773.00;;;23.20
11321;BMP180;5715;48.234;14.320;2024-02-21T13:55:30;98768.00;;;22.60
11321;BMP180;5715;48.234;14.320;2024-02-21T13:58:18;98763.00;;;22.90
11321;BMP180;5715;48.234;14.320;2024-02-21T14:01:06;98762.00;;;22.70
11321;BMP180;5715;48.234;14.320;2024-02-21T14:03:54;98756.00;;;22.90
11321;BMP180;5715;48.234;14.320;2024-02-21T14:06:41;98749.00;;;22.90
11321;BMP180;5715;48.234;14.320;2024-02-21T14:09:31;98746.00;;;22.90
11321;BMP180;5715;48.234;14.320;2024-02-21T14:12:20;98747.00;;;23.10
11321;BMP180;5715;48.234;14.320;2024-02-21T14:15:09;98736.00;;;22.80
11321;BMP180;5715;48.234;14.320;2024-02-21T14:17:57;98738.00;;;22.80
11321;BMP180;5715;48.234;14.320;2024-02-21T14:20:45;98733.00;;;22.70
11321;BMP180;5715;48.234;14.320;2024-02-21T14:23:34;98732.00;;;22.60
11321;BMP180;5715;48.234;14.320;2024-02-21T14:26:22;98726.00;;;22.60
11321;BMP180;5715;48.234;14.320;2024-02-21T14:29:10;98718.00;;;22.20
11321;BMP180;5715;48.234;14.320;2024-02-21T14:31:58;98717.00;;;22.40
11321;BMP180;5715;48.234;14.320;2024-02-21T14:34:46;98713.00;;;22.40
11321;BMP180;5715;48.234;14.320;2024-02-21T14:37:33;98711.00;;;22.40
11321;BMP180;5715;48.234;14.320;2024-02-21T14:40:21;98700.00;;;22.40
11321;BMP180;5715;48.234;14.320;2024-02-21T14:43:08;98696.00;;;22.40
11321;BMP180;5715;48.234;14.320;2024-02-21T14:45:56;98689.00;;;22.60
11321;BMP180;5715;48.234;14.320;2024-02-21T14:48:44;98679.00;;;22.50
11321;BMP180;5715;48.234;14.320;2024-02-21T14:51:33;98677.00;;;22.30
11321;BMP180;5715;48.234;14.320;2024-02-21T14:54:21;98665.00;;;22.40
11321;BMP180;5715;48.234;14.320;2024-02-21T14:57:08;98660.00;;;22.30
11321;BMP180;5715;48.234;14.320;2024-02-21T14:59:56;98660.00;;;22.30
11321;BMP180;5715;48.234;14.320;2024-02-21T15:02:47;98651.00;;;22.30
11321;BMP180;5715;48.234;14.320;2024-02-21T15:05:34;98645.00;;;22.40
11321;BMP180;5715;48.234;14.320;2024-02-21T15:08:22;98641.00;;;22.30
11321;BMP180;5715;48.234;14.320;2024-02-21T15:11:10;98640.00;;;22.40
11321;BMP180;5715;48.234;14.320;2024-02-21T15:13:58;98638.00;;;22.30
11321;BMP180;5715;48.234;14.320;2024-02-21T15:16:46;98637.00;;;22.40
11321;BMP180;5715;48.234;14.320;2024-02-21T15:19:33;98635.00;;;22.20
11321;BMP180;5715;48.234;14.320;2024-02-21T15:22:26;98628.00;;;22.10
11321;BMP180;5715;48.234;14.320;2024-02-21T15:25:15;98627.00;;;21.90
11321;BMP180;5715;48.234;14.320;2024-02-21T15:28:04;98626.00;;;21.70
11321;BMP180;5715;48.234;14.320;2024-02-21T15:30:52;98628.00;;;21.40
11321;BMP180;5715;48.234;14.320;2024-02-21T15:33:39;98618.00;;;21.30
11321;BMP180;5715;48.234;14.320;2024-02-21T15:36:27;98612.00;;;21.20
11321;BMP180;5715;48.234;14.320;2024-02-21T15:39:16;98610.00;;;21.00
11321;BMP180;5715;48.234;14.320;2024-02-21T15:42:04;98617.00;;;20.70
11321;BMP180;5715;48.234;14.320;2024-02-21T15:44:51;98616.00;;;20.40
11321;BMP180;5715;48.234;14.320;2024-02-21T15:47:39;98614.00;;;20.40
11321;BMP180;5715;48.234;14.320;2024-02-21T15:50:27;98615.00;;;20.30
11321;BMP180;5715;48.234;14.320;2024-02-21T15:53:16;98611.00;;;20.30
11321;BMP180;5715;48.234;14.320;2024-02-21T15:56:05;98620.00;;;20.30
11321;BMP180;5715;48.234;14.320;2024-02-21T15:58:53;98606.00;;;20.50
11321;BMP180;5715;48.234;14.320;2024-02-21T16:01:42;98608.00;;;20.20
11321;BMP180;5715;48.234;14.320;2024-02-21T16:04:30;98608.00;;;20.00
11321;BMP180;5715;48.234;14.320;2024-02-21T16:07:19;98609.00;;;20.00
11321;BMP180;5715;48.234;14.320;2024-02-21T16:10:07;98608.00;;;19.70
11321;BMP180;5715;48.234;14.320;2024-02-21T16:12:54;98610.00;;;19.70